sensor_id;sensor_type;location;lat;lon;timestamp;pressure;altitude;pressure_sealevel;temperature;humidity
73267;BME280;61495;53.400;7.608;2023-06-26T00:01:41;101221.28;;;22.95;61.20
73267;BME280;61495;53.400;7.608;2023-06-26T00:04:08;101216.09;;;22.93;61.30
73267;BME280;61495;53.400;7.608;2023-06-26T00:06:40;101209.56;;;22.89;61.64
73267;BME280;61495;53.400;7.608;2023-06-26T00:09:05;101210.91;;;22.87;61.49
73267;BME280;61495;53.400;7.608;2023-06-26T00:11:30;101211.22;;;22.85;61.35
73267;BME280;61495;53.400;7.608;2023-06-26T00:13:58;101211.47;;;22.84;61.46
73267;BME280;61495;53.400;7.608;2023-06-26T00:16:25;101204.94;;;22.80;61.85
73267;BME280;61495;53.400;7.608;2023-06-26T00:18:51;101198.13;;;22.77;61.81
73267;BME280;61495;53.400;7.608;2023-06-26T00:21:16;101198.41;;;22.76;62.29
73267;BME280;61495;53.400;7.608;2023-06-26T00:23:41;101193.47;;;22.73;62.79
73267;BME280;61495;53.400;7.608;2023-06-26T00:26:07;101194.03;;;22.69;62.32
73267;BME280;61495;53.400;7.608;2023-06-26T00:28:32;101186.41;;;22.66;63.24
73267;BME280;61495;53.400;7.608;2023-06-26T00:30:58;101190.25;;;22.65;62.32
73267;BME280;61495;53.400;7.608;2023-06-26T00:33:23;101180.94;;;22.61;62.97
73267;BME280;61495;53.400;7.608;2023-06-26T00:35:48;101183.13;;;22.59;62.60
73267;BME280;61495;53.400;7.608;2023-06-26T00:38:14;101180.97;;;22.56;62.76
73267;BME280;61495;53.400;7.608;2023-06-26T00:40:39;101184.25;;;22.53;62.76
73267;BME280;61495;53.400;7.608;2023-06-26T00:43:04;101179.34;;;22.50;63.57
73267;BME280;61495;53.400;7.608;2023-06-26T00:45:30;101179.88;;;22.47;65.05
73267;BME280;61495;53.400;7.608;2023-06-26T00:47:55;101179.63;;;22.44;63.29
73267;BME280;61495;53.400;7.608;2023-06-26T00:50:21;101171.69;;;22.42;63.66
73267;BME280;61495;53.400;7.608;2023-06-26T00:52:46;101166.78;;;22.39;63.99
73267;BME280;61495;53.400;7.608;2023-06-26T00:55:12;101166.81;;;22.34;64.81
73267;BME280;61495;53.400;7.608;2023-06-26T00:57:37;101164.63;;;22.31;65.49
73267;BME280;61495;53.400;7.608;2023-06-26T01:00:03;101160.25;;;22.30;64.36
73267;BME280;61495;53.400;7.608;2023-06-26T01:02:29;101155.34;;;22.27;64.09
73267;BME280;61495;53.400;7.608;2023-06-26T01:04:59;101158.06;;;22.27;64.54
73267;BME280;61495;53.400;7.608;2023-06-26T01:07:28;101158.63;;;22.24;64.49
73267;BME280;61495;53.400;7.608;2023-06-26T01:09:54;101144.44;;;22.22;64.84
73267;BME280;61495;53.400;7.608;2023-06-26T01:12:19;101147.19;;;22.17;64.42
73267;BME280;61495;53.400;7.608;2023-06-26T01:14:44;101141.44;;;22.19;64.55
73267;BME280;61495;53.400;7.608;2023-06-26T01:17:10;101127.53;;;22.15;65.33
73267;BME280;61495;53.400;7.608;2023-06-26T01:19:41;101133.56;;;22.12;65.35
73267;BME280;61495;53.400;7.608;2023-06-26T01:22:45;101117.72;;;22.09;64.89
73267;BME280;61495;53.400;7.608;2023-06-26T01:25:23;101120.19;;;22.05;66.31
73267;BME280;61495;53.400;7.608;2023-06-26T01:27:55;101120.75;;;22.02;66.21
73267;BME280;61495;53.400;7.608;2023-06-26T01:30:21;101116.66;;;22.00;66.96
73267;BME280;61495;53.400;7.608;2023-06-26T01:32:48;101114.72;;;22.00;65.44
73267;BME280;61495;53.400;7.608;2023-06-26T01:35:15;101110.63;;;21.98;65.08
73267;BME280;61495;53.400;7.608;2023-06-26T01:37:47;101103.00;;;21.95;65.55
73267;BME280;61495;53.400;7.608;2023-06-26T01:40:30;101105.72;;;21.95;65.99
73267;BME280;61495;53.400;7.608;2023-06-26T01:43:35;101115.28;;;21.92;66.36
73267;BME280;61495;53.400;7.608;2023-06-26T01:49:18;101094.28;;;21.88;67.04
73267;BME280;61495;53.400;7.608;2023-06-26T01:52:32;101093.16;;;21.84;66.70
73267;BME280;61495;53.400;7.608;2023-06-26T01:55:32;101082.81;;;21.81;66.52
73267;BME280;61495;53.400;7.608;2023-06-26T01:58:24;101081.16;;;21.80;67.56
73267;BME280;61495;53.400;7.608;2023-06-26T02:00:59;101081.44;;;21.78;66.25
73267;BME280;61495;53.400;7.608;2023-06-26T02:03:24;101075.72;;;21.75;66.19
73267;BME280;61495;53.400;7.608;2023-06-26T02:05:50;101083.91;;;21.75;66.30
73267;BME280;61495;53.400;7.608;2023-06-26T02:08:16;101080.06;;;21.71;66.42
73267;BME280;61495;53.400;7.608;2023-06-26T02:10:41;101080.06;;;21.71;66.03
73267;BME280;61495;53.400;7.608;2023-06-26T02:13:07;101069.47;;;21.69;66.51
73267;BME280;61495;53.400;7.608;2023-06-26T02:15:32;101065.09;;;21.68;66.79
73267;BME280;61495;53.400;7.608;2023-06-26T02:17:57;101068.34;;;21.65;66.35
73267;BME280;61495;53.400;7.608;2023-06-26T02:20:23;101060.47;;;21.64;66.39
73267;BME280;61495;53.400;7.608;2023-06-26T02:22:48;101059.66;;;21.63;67.08
73267;BME280;61495;53.400;7.608;2023-06-26T02:25:13;101060.19;;;21.60;67.09
73267;BME280;61495;53.400;7.608;2023-06-26T02:27:39;101059.38;;;21.59;67.25
73267;BME280;61495;53.400;7.608;2023-06-26T02:30:05;101056.09;;;21.57;67.03
73267;BME280;61495;53.400;7.608;2023-06-26T02:32:30;101052.03;;;21.55;68.28
73267;BME280;61495;53.400;7.608;2023-06-26T02:34:56;101046.81;;;21.53;68.53
73267;BME280;61495;53.400;7.608;2023-06-26T02:37:21;101053.66;;;21.51;67.23
73267;BME280;61495;53.400;7.608;2023-06-26T02:39:46;101045.75;;;21.49;67.35
73267;BME280;61495;53.400;7.608;2023-06-26T02:42:12;101045.19;;;21.47;66.80
73267;BME280;61495;53.400;7.608;2023-06-26T02:44:37;101047.09;;;21.47;66.87
73267;BME280;61495;53.400;7.608;2023-06-26T02:47:02;101047.38;;;21.45;68.17
73267;BME280;61495;53.400;7.608;2023-06-26T02:49:28;101050.41;;;21.44;67.60
73267;BME280;61495;53.400;7.608;2023-06-26T02:51:53;101047.94;;;21.42;67.61
73267;BME280;61495;53.400;7.608;2023-06-26T02:54:19;101050.94;;;21.41;67.80
73267;BME280;61495;53.400;7.608;2023-06-26T02:56:44;101034.03;;;21.39;67.51
73267;BME280;61495;53.400;7.608;2023-06-26T02:59:09;101033.19;;;21.38;68.26
73267;BME280;61495;53.400;7.608;2023-06-26T03:01:35;101040.59;;;21.38;67.64
73267;BME280;61495;53.400;7.608;2023-06-26T03:04:00;101038.94;;;21.37;68.68
73267;BME280;61495;53.400;7.608;2023-06-26T03:06:28;101031.84;;;21.36;68.03
73267;BME280;61495;53.400;7.608;2023-06-26T03:08:54;101031.31;;;21.34;68.32
73267;BME280;61495;53.400;7.608;2023-06-26T03:11:19;101025.03;;;21.33;67.58
73267;BME280;61495;53.400;7.608;2023-06-26T03:13:45;101036.78;;;21.29;70.51
73267;BME280;61495;53.400;7.608;2023-06-26T03:16:10;101023.94;;;21.29;69.52
73267;BME280;61495;53.400;7.608;2023-06-26T03:18:35;101009.78;;;21.22;71.40
73267;BME280;61495;53.400;7.608;2023-06-26T03:21:01;101021.75;;;21.26;69.95
73267;BME280;61495;53.400;7.608;2023-06-26T03:23:26;101025.03;;;21.23;68.93
73267;BME280;61495;53.400;7.608;2023-06-26T03:25:53;101025.59;;;21.25;69.37
73267;BME280;61495;53.400;7.608;2023-06-26T03:28:18;101019.03;;;21.26;68.71
73267;BME280;61495;53.400;7.608;2023-06-26T03:30:49;101019.84;;;21.27;69.23
73267;BME280;61495;53.400;7.608;2023-06-26T03:33:14;101013.59;;;21.21;70.86
73267;BME280;61495;53.400;7.608;2023-06-26T03:35:39;101015.22;;;21.22;69.89
73267;BME280;61495;53.400;7.608;2023-06-26T03:38:05;101012.50;;;21.22;69.65
73267;BME280;61495;53.400;7.608;2023-06-26T03:40:31;101008.97;;;21.22;69.97
73267;BME280;61495;53.400;7.608;2023-06-26T03:42:56;101010.31;;;21.19;70.00
73267;BME280;61495;53.400;7.608;2023-06-26T03:45:21;101002.41;;;21.18;71.13
73267;BME280;61495;53.400;7.608;2023-06-26T03:47:47;101001.63;;;21.17;70.86
73267;BME280;61495;53.400;7.608;2023-06-26T03:50:15;101000.53;;;21.13;71.04
73267;BME280;61495;53.400;7.608;2023-06-26T03:52:40;100995.06;;;21.13;71.60
73267;BME280;61495;53.400;7.608;2023-06-26T03:55:06;100996.72;;;21.14;71.76
73267;BME280;61495;53.400;7.608;2023-06-26T03:57:31;100995.59;;;21.15;69.92
73267;BME280;61495;53.400;7.608;2023-06-26T03:59:57;101001.63;;;21.17;70.99
73267;BME280;61495;53.400;7.608;2023-06-26T04:02:22;100992.06;;;21.15;71.13
73267;BME280;61495;53.400;7.608;2023-06-26T04:04:48;100997.78;;;21.18;71.31
73267;BME280;61495;53.400;7.608;2023-06-26T04:07:13;100993.97;;;21.19;70.89
73267;BME280;61495;53.400;7.608;2023-06-26T04:09:38;101001.03;;;21.20;69.71
73267;BME280;61495;53.400;7.608;2023-06-26T04:12:05;100994.25;;;21.23;69.06
73267;BME280;61495;53.400;7.608;2023-06-26T04:14:30;100993.97;;;21.24;69.98
73267;BME280;61495;53.400;7.608;2023-06-26T04:16:56;100996.69;;;21.24;70.30
73267;BME280;61495;53.400;7.608;2023-06-26T04:19:23;100995.03;;;21.23;71.76
73267;BME280;61495;53.400;7.608;2023-06-26T04:21:48;100989.88;;;21.27;69.61
73267;BME280;61495;53.400;7.608;2023-06-26T04:24:13;100987.72;;;21.29;69.79
73267;BME280;61495;53.400;7.608;2023-06-26T04:26:39;100986.88;;;21.28;70.22
73267;BME280;61495;53.400;7.608;2023-06-26T04:29:06;100987.41;;;21.30;70.74
73267;BME280;61495;53.400;7.608;2023-06-26T04:31:32;100987.94;;;21.32;70.88
73267;BME280;61495;53.400;7.608;2023-06-26T04:33:57;100986.34;;;21.31;70.65
73267;BME280;61495;53.400;7.608;2023-06-26T04:36:24;100991.78;;;21.31;71.90
73267;BME280;61495;53.400;7.608;2023-06-26T04:38:54;100990.41;;;21.34;72.17
73267;BME280;61495;53.400;7.608;2023-06-26T04:41:19;100985.25;;;21.37;71.13
73267;BME280;61495;53.400;7.608;2023-06-26T04:43:45;100975.16;;;21.38;71.89
73267;BME280;61495;53.400;7.608;2023-06-26T04:46:10;100984.69;;;21.40;72.14
73267;BME280;61495;53.400;7.608;2023-06-26T04:48:35;100979.50;;;21.44;71.50
73267;BME280;61495;53.400;7.608;2023-06-26T04:51:01;100980.88;;;21.46;72.84
73267;BME280;61495;53.400;7.608;2023-06-26T04:53:26;100971.59;;;21.52;72.32
73267;BME280;61495;53.400;7.608;2023-06-26T04:55:52;100975.94;;;21.58;71.87
73267;BME280;61495;53.400;7.608;2023-06-26T04:58:18;100974.28;;;21.68;72.46
73267;BME280;61495;53.400;7.608;2023-06-26T05:00:44;100967.69;;;21.74;71.37
73267;BME280;61495;53.400;7.608;2023-06-26T05:03:13;100978.03;;;21.87;71.14
73267;BME280;61495;53.400;7.608;2023-06-26T05:05:39;100977.50;;;21.90;70.59
73267;BME280;61495;53.400;7.608;2023-06-26T05:10:40;100973.56;;;22.21;71.13
73267;BME280;61495;53.400;7.608;2023-06-26T05:13:06;100980.03;;;22.35;70.23
73267;BME280;61495;53.400;7.608;2023-06-26T05:15:31;100975.06;;;22.42;70.19
73267;BME280;61495;53.400;7.608;2023-06-26T05:17:56;100977.78;;;22.42;70.09
73267;BME280;61495;53.400;7.608;2023-06-26T05:20:21;100984.84;;;22.48;70.69
73267;BME280;61495;53.400;7.608;2023-06-26T05:22:47;100982.13;;;22.53;70.66
73267;BME280;61495;53.400;7.608;2023-06-26T05:25:13;100981.81;;;22.55;70.27
73267;BME280;61495;53.400;7.608;2023-06-26T05:27:39;100979.28;;;22.74;69.80
73267;BME280;61495;53.400;7.608;2023-06-26T05:30:05;100978.59;;;22.92;69.84
73267;BME280;61495;53.400;7.608;2023-06-26T05:32:34;100965.91;;;23.06;69.61
73267;BME280;61495;53.400;7.608;2023-06-26T05:35:01;100968.97;;;23.28;69.09
73267;BME280;61495;53.400;7.608;2023-06-26T05:37:28;100970.28;;;23.36;69.06
73267;BME280;61495;53.400;7.608;2023-06-26T05:39:53;100974.28;;;23.48;69.06
73267;BME280;61495;53.400;7.608;2023-06-26T05:42:19;100986.25;;;23.57;69.40
73267;BME280;61495;53.400;7.608;2023-06-26T05:44:45;100985.53;;;23.70;68.51
73267;BME280;61495;53.400;7.608;2023-06-26T05:47:10;100992.13;;;23.69;68.26
73267;BME280;61495;53.400;7.608;2023-06-26T05:49:35;100982.63;;;23.62;68.81
73267;BME280;61495;53.400;7.608;2023-06-26T05:52:01;100988.84;;;23.67;68.86
73267;BME280;61495;53.400;7.608;2023-06-26T05:54:26;100992.75;;;23.61;69.45
73267;BME280;61495;53.400;7.608;2023-06-26T05:56:57;101002.31;;;23.88;69.78
73267;BME280;61495;53.400;7.608;2023-06-26T05:59:24;101013.91;;;24.03;67.62
73267;BME280;61495;53.400;7.608;2023-06-26T06:01:51;101003.94;;;23.89;68.34
73267;BME280;61495;53.400;7.608;2023-06-26T06:04:17;101000.22;;;24.03;67.75
73267;BME280;61495;53.400;7.608;2023-06-26T06:06:42;100997.03;;;24.20;67.55
73267;BME280;61495;53.400;7.608;2023-06-26T06:09:07;100999.94;;;24.47;68.21
73267;BME280;61495;53.400;7.608;2023-06-26T06:11:33;101005.97;;;24.49;67.55
73267;BME280;61495;53.400;7.608;2023-06-26T06:13:58;101014.22;;;24.44;67.28
73267;BME280;61495;53.400;7.608;2023-06-26T06:16:25;101019.19;;;24.42;67.53
73267;BME280;61495;53.400;7.608;2023-06-26T06:18:50;101026.69;;;24.55;67.86
73267;BME280;61495;53.400;7.608;2023-06-26T06:21:15;101015.22;;;24.72;67.97
73267;BME280;61495;53.400;7.608;2023-06-26T06:23:41;101031.47;;;24.87;68.03
73267;BME280;61495;53.400;7.608;2023-06-26T06:26:06;101042.28;;;24.97;66.50
73267;BME280;61495;53.400;7.608;2023-06-26T06:28:31;101065.25;;;25.01;67.25
73267;BME280;61495;53.400;7.608;2023-06-26T06:30:57;101067.34;;;24.91;66.39
73267;BME280;61495;53.400;7.608;2023-06-26T06:33:22;101058.59;;;24.65;67.08
73267;BME280;61495;53.400;7.608;2023-06-26T06:35:48;101067.59;;;24.70;67.03
73267;BME280;61495;53.400;7.608;2023-06-26T06:38:13;101081.50;;;24.55;66.62
73267;BME280;61495;53.400;7.608;2023-06-26T06:40:39;101080.56;;;24.41;67.77
73267;BME280;61495;53.400;7.608;2023-06-26T06:43:04;101072.50;;;24.31;67.74
73267;BME280;61495;53.400;7.608;2023-06-26T06:45:30;101081.69;;;24.40;67.34
73267;BME280;61495;53.400;7.608;2023-06-26T06:47:55;101085.34;;;24.07;68.93
73267;BME280;61495;53.400;7.608;2023-06-26T06:50:20;101105.91;;;24.04;68.80
73267;BME280;61495;53.400;7.608;2023-06-26T06:52:46;101119.50;;;23.86;69.79
73267;BME280;61495;53.400;7.608;2023-06-26T06:55:11;101100.06;;;23.87;69.59
73267;BME280;61495;53.400;7.608;2023-06-26T06:57:38;101123.41;;;24.03;70.00
73267;BME280;61495;53.400;7.608;2023-06-26T07:00:05;101139.28;;;23.77;69.44
73267;BME280;61495;53.400;7.608;2023-06-26T07:02:34;101163.50;;;23.60;70.59
73267;BME280;61495;53.400;7.608;2023-06-26T07:04:59;101171.31;;;23.33;72.10
73267;BME280;61495;53.400;7.608;2023-06-26T07:07:28;101189.19;;;23.64;70.62
73267;BME280;61495;53.400;7.608;2023-06-26T07:09:54;101192.38;;;23.33;71.44
73267;BME280;61495;53.400;7.608;2023-06-26T07:12:19;101189.91;;;23.36;70.28
73267;BME280;61495;53.400;7.608;2023-06-26T07:14:45;101192.09;;;23.39;71.34
73267;BME280;61495;53.400;7.608;2023-06-26T07:17:10;101193.72;;;23.40;70.76
73267;BME280;61495;53.400;7.608;2023-06-26T07:19:35;101189.94;;;23.26;71.32
73267;BME280;61495;53.400;7.608;2023-06-26T07:22:01;101177.56;;;22.90;73.39
73267;BME280;61495;53.400;7.608;2023-06-26T07:24:26;101174.81;;;22.90;72.68
73267;BME280;61495;53.400;7.608;2023-06-26T07:26:51;101176.50;;;22.86;74.88
73267;BME280;61495;53.400;7.608;2023-06-26T07:29:17;101181.94;;;22.91;75.22
73267;BME280;61495;53.400;7.608;2023-06-26T07:31:42;101180.34;;;22.75;75.35
73267;BME280;61495;53.400;7.608;2023-06-26T07:34:09;101186.38;;;22.77;75.62
73267;BME280;61495;53.400;7.608;2023-06-26T07:36:35;101192.66;;;22.77;74.46
73267;BME280;61495;53.400;7.608;2023-06-26T07:39:00;101192.34;;;22.89;74.41
73267;BME280;61495;53.400;7.608;2023-06-26T07:41:25;101193.25;;;23.23;73.58
73267;BME280;61495;53.400;7.608;2023-06-26T07:43:51;101221.41;;;23.23;74.50
73267;BME280;61495;53.400;7.608;2023-06-26T07:46:16;101214.13;;;23.09;73.00
73267;BME280;61495;53.400;7.608;2023-06-26T07:48:41;101218.53;;;23.00;72.02
73267;BME280;61495;53.400;7.608;2023-06-26T07:51:06;101218.22;;;23.01;72.19
73267;BME280;61495;53.400;7.608;2023-06-26T07:53:32;101208.19;;;22.92;71.92
73267;BME280;61495;53.400;7.608;2023-06-26T07:55:57;101199.69;;;22.93;71.71
73267;BME280;61495;53.400;7.608;2023-06-26T07:58:22;101215.78;;;23.00;70.75
73267;BME280;61495;53.400;7.608;2023-06-26T08:00:48;101217.03;;;23.28;71.59
73267;BME280;61495;53.400;7.608;2023-06-26T08:03:14;101221.53;;;23.57;69.44
73267;BME280;61495;53.400;7.608;2023-06-26T08:05:39;101225.97;;;23.87;67.92
73267;BME280;61495;53.400;7.608;2023-06-26T08:08:04;101228.09;;;23.95;68.23
73267;BME280;61495;53.400;7.608;2023-06-26T08:10:31;101230.16;;;24.13;66.93
73267;BME280;61495;53.400;7.608;2023-06-26T08:12:56;101223.09;;;24.36;67.03
73267;BME280;61495;53.400;7.608;2023-06-26T08:15:21;101224.03;;;24.50;65.37
73267;BME280;61495;53.400;7.608;2023-06-26T08:17:47;101232.22;;;24.55;64.46
73267;BME280;61495;53.400;7.608;2023-06-26T08:20:12;101226.06;;;24.40;63.71
73267;BME280;61495;53.400;7.608;2023-06-26T08:22:38;101235.25;;;24.77;64.10
73267;BME280;61495;53.400;7.608;2023-06-26T08:25:03;101241.53;;;24.83;63.41
73267;BME280;61495;53.400;7.608;2023-06-26T08:27:32;101246.16;;;24.88;63.93
73267;BME280;61495;53.400;7.608;2023-06-26T08:29:57;101253.72;;;24.96;62.23
73267;BME280;61495;53.400;7.608;2023-06-26T08:32:22;101251.69;;;24.77;61.80
73267;BME280;61495;53.400;7.608;2023-06-26T08:34:48;101264.69;;;24.96;63.60
73267;BME280;61495;53.400;7.608;2023-06-26T08:37:13;101251.19;;;25.23;62.67
73267;BME280;61495;53.400;7.608;2023-06-26T08:39:38;101258.03;;;25.44;62.41
73267;BME280;61495;53.400;7.608;2023-06-26T08:42:04;101259.50;;;25.36;61.71
73267;BME280;61495;53.400;7.608;2023-06-26T08:44:29;101269.25;;;25.66;61.32
73267;BME280;61495;53.400;7.608;2023-06-26T08:46:55;101275.44;;;25.77;60.21
73267;BME280;61495;53.400;7.608;2023-06-26T08:49:22;101278.16;;;25.95;60.41
73267;BME280;61495;53.400;7.608;2023-06-26T08:52:01;101264.28;;;25.87;58.64
73267;BME280;61495;53.400;7.608;2023-06-26T08:54:41;101290.94;;;25.86;58.46
73267;BME280;61495;53.400;7.608;2023-06-26T08:57:08;101291.59;;;25.97;59.02
73267;BME280;61495;53.400;7.608;2023-06-26T08:59:33;101303.75;;;26.28;58.51
73267;BME280;61495;53.400;7.608;2023-06-26T09:01:59;101295.97;;;26.17;56.37
73267;BME280;61495;53.400;7.608;2023-06-26T09:04:25;101312.31;;;25.89;57.59
73267;BME280;61495;53.400;7.608;2023-06-26T09:06:50;101296.38;;;25.91;57.72
73267;BME280;61495;53.400;7.608;2023-06-26T09:09:16;101311.88;;;25.82;58.47
73267;BME280;61495;53.400;7.608;2023-06-26T09:11:41;101315.81;;;25.76;57.17
73267;BME280;61495;53.400;7.608;2023-06-26T09:14:07;101312.75;;;25.96;57.00
73267;BME280;61495;53.400;7.608;2023-06-26T09:16:40;101331.66;;;25.61;56.49
73267;BME280;61495;53.400;7.608;2023-06-26T09:19:13;101336.00;;;25.85;57.87
73267;BME280;61495;53.400;7.608;2023-06-26T09:21:42;101344.53;;;25.65;57.06
73267;BME280;61495;53.400;7.608;2023-06-26T09:24:09;101348.25;;;25.74;59.34
73267;BME280;61495;53.400;7.608;2023-06-26T09:26:36;101347.91;;;25.57;56.42
73267;BME280;61495;53.400;7.608;2023-06-26T09:29:02;101358.88;;;25.57;57.58
73267;BME280;61495;53.400;7.608;2023-06-26T09:31:28;101362.75;;;25.56;56.84
73267;BME280;61495;53.400;7.608;2023-06-26T09:34:00;101364.91;;;25.35;56.81
73267;BME280;61495;53.400;7.608;2023-06-26T09:36:28;101371.03;;;25.51;56.20
73267;BME280;61495;53.400;7.608;2023-06-26T09:38:54;101372.31;;;25.35;57.16
73267;BME280;61495;53.400;7.608;2023-06-26T09:41:20;101366.75;;;25.16;56.53
73267;BME280;61495;53.400;7.608;2023-06-26T09:43:48;101380.81;;;25.10;56.73
73267;BME280;61495;53.400;7.608;2023-06-26T09:46:23;101382.22;;;25.31;57.93
73267;BME280;61495;53.400;7.608;2023-06-26T09:48:50;101379.53;;;25.26;55.75
73267;BME280;61495;53.400;7.608;2023-06-26T09:51:16;101396.00;;;25.26;55.89
73267;BME280;61495;53.400;7.608;2023-06-26T09:53:42;101404.88;;;24.89;55.89
73267;BME280;61495;53.400;7.608;2023-06-26T09:56:15;101400.00;;;25.38;57.43
73267;BME280;61495;53.400;7.608;2023-06-26T09:58:42;101415.19;;;25.55;56.65
73267;BME280;61495;53.400;7.608;2023-06-26T10:01:11;101401.22;;;25.51;55.71
73267;BME280;61495;53.400;7.608;2023-06-26T10:03:36;101402.09;;;25.70;55.76
73267;BME280;61495;53.400;7.608;2023-06-26T10:06:02;101404.50;;;25.77;55.13
73267;BME280;61495;53.400;7.608;2023-06-26T10:08:29;101410.53;;;25.55;55.53
73267;BME280;61495;53.400;7.608;2023-06-26T10:10:56;101408.16;;;25.43;55.52
73267;BME280;61495;53.400;7.608;2023-06-26T10:13:31;101415.84;;;25.18;54.82
73267;BME280;61495;53.400;7.608;2023-06-26T10:15:59;101418.47;;;25.57;55.48
73267;BME280;61495;53.400;7.608;2023-06-26T10:18:26;101414.97;;;25.46;55.01
73267;BME280;61495;53.400;7.608;2023-06-26T10:20:53;101425.59;;;25.29;55.68
73267;BME280;61495;53.400;7.608;2023-06-26T10:23:22;101426.03;;;25.41;56.80
73267;BME280;61495;53.400;7.608;2023-06-26T10:25:48;101428.97;;;25.73;56.48
73267;BME280;61495;53.400;7.608;2023-06-26T10:28:16;101430.13;;;25.67;56.43
73267;BME280;61495;53.400;7.608;2023-06-26T10:30:44;101422.00;;;25.57;54.08
73267;BME280;61495;53.400;7.608;2023-06-26T10:33:11;101428.06;;;25.59;55.29
73267;BME280;61495;53.400;7.608;2023-06-26T10:35:44;101430.84;;;25.54;57.96
73267;BME280;61495;53.400;7.608;2023-06-26T10:38:09;101430.13;;;25.67;56.26
73267;BME280;61495;53.400;7.608;2023-06-26T10:40:46;101431.13;;;25.53;54.54
73267;BME280;61495;53.400;7.608;2023-06-26T10:43:14;101430.41;;;25.13;53.86
73267;BME280;61495;53.400;7.608;2023-06-26T10:45:44;101437.09;;;25.31;54.43
73267;BME280;61495;53.400;7.608;2023-06-26T10:48:13;101440.00;;;25.16;54.47
73267;BME280;61495;53.400;7.608;2023-06-26T10:50:39;101438.22;;;25.30;54.92
73267;BME280;61495;53.400;7.608;2023-06-26T10:53:12;101451.81;;;25.40;57.55
73267;BME280;61495;53.400;7.608;2023-06-26T10:55:42;101438.31;;;25.49;55.35
73267;BME280;61495;53.400;7.608;2023-06-26T10:58:28;101436.94;;;25.46;55.39
73267;BME280;61495;53.400;7.608;2023-06-26T11:04:05;101437.03;;;25.36;54.06
73267;BME280;61495;53.400;7.608;2023-06-26T11:06:31;101436.53;;;25.34;54.50
73267;BME280;61495;53.400;7.608;2023-06-26T11:09:09;101443.22;;;25.23;54.96
73267;BME280;61495;53.400;7.608;2023-06-26T11:14:18;101440.22;;;25.72;54.95
73267;BME280;61495;53.400;7.608;2023-06-26T11:16:44;101454.31;;;25.36;54.82
73267;BME280;61495;53.400;7.608;2023-06-26T11:19:10;101459.38;;;25.24;55.10
73267;BME280;61495;53.400;7.608;2023-06-26T11:21:37;101465.84;;;25.38;54.27
73267;BME280;61495;53.400;7.608;2023-06-26T11:24:04;101478.00;;;25.32;54.51
73267;BME280;61495;53.400;7.608;2023-06-26T11:26:37;101485.38;;;25.03;54.56
73267;BME280;61495;53.400;7.608;2023-06-26T11:29:03;101475.38;;;24.83;55.42
73267;BME280;61495;53.400;7.608;2023-06-26T11:31:33;101468.56;;;25.15;54.57
73267;BME280;61495;53.400;7.608;2023-06-26T11:34:03;101478.97;;;25.13;53.53
73267;BME280;61495;53.400;7.608;2023-06-26T11:36:29;101476.81;;;25.10;54.08
73267;BME280;61495;53.400;7.608;2023-06-26T11:38:59;101476.28;;;25.08;54.70
73267;BME280;61495;53.400;7.608;2023-06-26T11:41:32;101481.44;;;25.14;53.97
73267;BME280;61495;53.400;7.608;2023-06-26T11:44:01;101487.75;;;25.15;53.96
73267;BME280;61495;53.400;7.608;2023-06-26T11:46:27;101484.38;;;25.23;54.44
73267;BME280;61495;53.400;7.608;2023-06-26T11:48:53;101495.88;;;25.25;54.23
73267;BME280;61495;53.400;7.608;2023-06-26T11:51:18;101481.13;;;25.21;53.79
73267;BME280;61495;53.400;7.608;2023-06-26T11:53:46;101493.72;;;25.22;52.53
73267;BME280;61495;53.400;7.608;2023-06-26T11:56:13;101499.78;;;25.19;52.02
73267;BME280;61495;53.400;7.608;2023-06-26T11:58:58;101505.63;;;25.41;52.31
73267;BME280;61495;53.400;7.608;2023-06-26T12:01:26;101512.38;;;25.54;52.03
73267;BME280;61495;53.400;7.608;2023-06-26T12:03:57;101504.34;;;25.62;52.97
73267;BME280;61495;53.400;7.608;2023-06-26T12:06:24;101499.88;;;25.66;52.57
73267;BME280;61495;53.400;7.608;2023-06-26T12:08:49;101506.50;;;25.65;51.23
73267;BME280;61495;53.400;7.608;2023-06-26T12:11:15;101504.84;;;25.64;52.63
73267;BME280;61495;53.400;7.608;2023-06-26T12:13:41;101513.44;;;25.81;52.49
73267;BME280;61495;53.400;7.608;2023-06-26T12:16:06;101509.34;;;25.79;51.05
73267;BME280;61495;53.400;7.608;2023-06-26T12:18:35;101514.81;;;25.55;50.05
73267;BME280;61495;53.400;7.608;2023-06-26T12:21:01;101513.34;;;25.91;50.61
73267;BME280;61495;53.400;7.608;2023-06-26T12:23:39;101508.75;;;25.58;50.29
73267;BME280;61495;53.400;7.608;2023-06-26T12:26:20;101528.91;;;25.72;50.67
73267;BME280;61495;53.400;7.608;2023-06-26T12:28:47;101525.53;;;25.57;49.58
73267;BME280;61495;53.400;7.608;2023-06-26T12:31:16;101529.16;;;25.47;50.14
73267;BME280;61495;53.400;7.608;2023-06-26T12:33:43;101536.72;;;25.60;49.63
73267;BME280;61495;53.400;7.608;2023-06-26T12:36:12;101527.66;;;25.31;49.78
73267;BME280;61495;53.400;7.608;2023-06-26T12:38:38;101528.53;;;25.26;50.31
73267;BME280;61495;53.400;7.608;2023-06-26T12:41:04;101527.59;;;25.36;50.61
73267;BME280;61495;53.400;7.608;2023-06-26T12:43:29;101532.38;;;25.25;50.21
73267;BME280;61495;53.400;7.608;2023-06-26T12:45:55;101542.06;;;25.13;50.28
73267;BME280;61495;53.400;7.608;2023-06-26T12:48:21;101536.22;;;24.85;50.72
73267;BME280;61495;53.400;7.608;2023-06-26T12:50:47;101524.94;;;24.97;51.05
73267;BME280;61495;53.400;7.608;2023-06-26T12:53:13;101530.38;;;25.31;51.69
73267;BME280;61495;53.400;7.608;2023-06-26T12:55:39;101533.38;;;25.06;52.18
73267;BME280;61495;53.400;7.608;2023-06-26T12:58:04;101535.06;;;24.97;51.44
73267;BME280;61495;53.400;7.608;2023-06-26T13:00:29;101528.44;;;25.03;53.13
73267;BME280;61495;53.400;7.608;2023-06-26T13:02:57;101532.78;;;25.09;52.14